Ratliff City, Oklahoma
Current Conditions -  °F | °C
As of 9:15 AM on Friday 31 Oct 2014 (Local Time) from KPVJ Reporting Station
Clear Clear  
Wind Chill: 43°   Ceiling: Unl
Heat Index: 49°   Visibility: 10mi
Dew Point: 40°   Wind: 15mph
Humidity: 71%   Direction: 10°N
Pressure: 30.37"   Gusts: 26mph
Location:  34.45°N, 97.51°W
Report Text: KPVJ 311415Z AUTO 01013G23KT 10SM CLR 09/04 A3037 RMK AO2 T00920042
Loading
Personal Weather Stations






























Interactive Weather Map
Tropical Storm Tracking
New forecast layout! Learn more

10-Day Weather Forecast

Advertisements
Track Severe Weather on mobile